KSDL

Scottsdale Airport

Scottsdale, Arizona, USA
METAR KSDL 191653Z 13003KT 10SM CLR 34/18 A2994 RMK AO2 SLP107 T03390178
Observed Flight Rules
Aug-19 @ 16:53 UTC (21 minutes ago) Visual Flight Rules
Wind Visibility Clouds
130° at 3 knots 10 miles
  • Clear skies
Temperatures Readings
Current 34°C / 93°F
Dewpoint 18°C / 64°F
Humidity 39%
Altimeter 29.94" Hg
Pressure 1010.7 hPa
Elevation 447
METAR KSDL 191653Z 13003KT 10SM CLR 34/18 A2994 RMK AO2 SLP107 T03390178
Observed Flight Rules
Aug-19 @ 16:53 UTC
(21 minutes ago)
VFR
Wind Visibility
130° at 3 knots 10 miles
Clouds
  • Clear skies
Temperature Dewpoint
34°C / 93°F 18°C / 64°F
Humidity Altimeter Pressure
39% 29.94" Hg 1010.7 hPa